Time;durP1;ratioP1;P1;durP2;ratioP2;P2;SDS_P1;SDS_P2;PMS_P1;PMS_P2;Temp;Humidity;BMP_temperature;BMP_pressure;BME280_temperature;BME280_humidity;BME280_pressure;Samples;Min_cycle;Max_cycle;Signal;HPM_P1;HPM_P2
2022/05/19 00:01:59;;;;;;;4.13;3.63;;;;;;;20.31;64.02;101332.78;5085475;28;20107;-81
2022/05/19 00:04:30;;;;;;;3.95;3.47;;;;;;;20.28;64.38;101322.25;5064469;27;20134;-84
2022/05/19 00:06:57;;;;;;;4.15;2.97;;;;;;;20.26;64.47;101325.88;5081969;27;20464;-81
2022/05/19 00:09:24;;;;;;;4.15;2.97;;;;;;;20.24;64.47;101322.44;5068747;27;20048;-81
2022/05/19 00:11:53;;;;;;;2.55;2.35;;;;;;;20.20;64.56;101319.03;5083091;27;20047;-84
2022/05/19 00:14:20;;;;;;;3.20;2.97;;;;;;;20.17;64.46;101311.19;5081047;27;20292;-82
2022/05/19 00:16:46;;;;;;;3.88;2.75;;;;;;;20.13;64.97;101306.91;5068570;27;20063;-81
2022/05/19 00:19:14;;;;;;;3.38;3.08;;;;;;;20.11;64.87;101308.75;5081134;27;20126;-83
2022/05/19 00:21:41;;;;;;;3.70;3.20;;;;;;;20.07;65.05;101309.81;5082391;27;20147;-79
2022/05/19 00:24:10;;;;;;;8.38;3.03;;;;;;;20.03;65.42;101305.53;5065381;27;20047;-81
2022/05/19 00:26:36;;;;;;;3.70;3.40;;;;;;;19.99;65.27;101305.63;5066046;27;20125;-83
2022/05/19 00:29:11;;;;;;;3.42;3.13;;;;;;;19.96;65.79;101305.75;5065396;27;20326;-80
2022/05/19 00:31:38;;;;;;;4.80;3.00;;;;;;;19.93;65.71;101302.34;5076544;27;20079;-81
2022/05/19 00:34:07;;;;;;;3.13;2.92;;;;;;;19.94;65.91;101301.44;5068364;27;20485;-84
2022/05/19 00:36:34;;;;;;;5.82;3.30;;;;;;;19.89;66.16;101296.28;5070584;28;20156;-80
2022/05/19 00:39:01;;;;;;;2.63;2.42;;;;;;;19.86;66.02;101296.41;5068890;27;20106;-80
2022/05/19 00:41:28;;;;;;;4.47;3.50;;;;;;;19.83;66.35;101300.03;5067238;27;20053;-81
2022/05/19 00:44:06;;;;;;;4.28;3.15;;;;;;;19.80;66.50;101299.25;5083188;27;20071;-81
2022/05/19 00:46:46;;;;;;;4.65;3.10;;;;;;;19.77;66.68;101296.72;5067024;27;20383;-83
2022/05/19 00:49:26;;;;;;;5.28;3.80;;;;;;;19.75;66.88;101294.13;5084056;28;20039;-79
2022/05/19 00:52:12;;;;;;;3.50;3.20;;;;;;;19.72;66.81;101296.03;5064930;28;20527;-81
2022/05/19 00:54:44;;;;;;;6.90;6.20;;;;;;;19.70;66.80;101292.53;5077564;27;20144;-80
2022/05/19 00:57:27;;;;;;;3.92;3.55;;;;;;;19.67;66.94;101294.41;5062080;27;20044;-83
2022/05/19 01:00:11;;;;;;;5.90;3.80;;;;;;;19.65;67.06;101295.38;5067376;27;20612;-83
2022/05/19 01:02:58;;;;;;;4.45;3.53;;;;;;;19.63;67.42;101297.22;5064857;27;20154;-81
2022/05/19 01:05:43;;;;;;;3.15;2.90;;;;;;;19.60;67.47;101289.38;5062107;27;20072;-81
2022/05/19 01:08:20;;;;;;;3.50;3.17;;;;;;;19.57;67.62;101290.34;5065224;28;20067;-83
2022/05/19 01:10:47;;;;;;;3.63;3.28;;;;;;;19.53;67.61;101285.19;5066545;27;20052;-83
2022/05/19 01:13:15;;;;;;;5.10;3.45;;;;;;;19.51;67.71;101293.22;5066482;28;20056;-81
2022/05/19 01:15:46;;;;;;;5.57;4.05;;;;;;;19.48;67.93;101294.19;5071231;27;20051;-81
2022/05/19 01:18:15;;;;;;;3.88;3.08;;;;;;;19.45;68.20;101296.09;5068615;28;20043;-82
2022/05/19 01:20:44;;;;;;;5.90;4.10;;;;;;;19.42;68.15;101296.22;5070543;27;20134;-81
2022/05/19 01:23:26;;;;;;;4.38;3.28;;;;;;;19.38;68.14;101294.59;5080556;27;20497;-84
2022/05/19 01:26:20;;;;;;;4.55;4.22;;;;;;;19.34;68.63;101288.50;5087105;27;20523;-84
2022/05/19 01:28:47;;;;;;;3.40;3.13;;;;;;;19.29;68.75;101296.63;5082643;27;20048;-83
2022/05/19 01:31:42;;;;;;;4.93;3.88;;;;;;;19.26;69.05;101299.41;5067733;28;20116;-80
2022/05/19 01:34:10;;;;;;;4.40;3.75;;;;;;;19.23;69.11;101291.56;5055500;28;20137;-83
2022/05/19 01:36:38;;;;;;;6.25;4.20;;;;;;;19.22;69.14;101300.44;5079726;28;20073;-83
2022/05/19 01:39:12;;;;;;;3.65;3.22;;;;;;;19.20;69.04;101294.28;5080769;28;20063;-84
2022/05/19 01:42:15;;;;;;;5.03;3.38;;;;;;;19.20;69.43;101285.47;5065981;28;20047;-81
2022/05/19 01:45:04;;;;;;;4.25;3.38;;;;;;;19.18;69.41;101289.06;5092362;27;20138;-81
2022/05/19 01:48:05;;;;;;;4.07;3.20;;;;;;;19.19;69.28;101292.59;5081633;27;20516;-82
2022/05/19 01:51:05;;;;;;;4.07;3.70;;;;;;;19.18;69.12;101288.19;5064601;27;20058;-84
2022/05/19 01:53:40;;;;;;;3.83;3.50;;;;;;;19.17;68.91;101286.47;5060191;27;20143;-83
2022/05/19 01:56:32;;;;;;;5.05;3.47;;;;;;;19.17;69.28;101282.00;5080536;27;20493;-82
2022/05/19 01:59:18;;;;;;;6.88;3.55;;;;;;;19.19;68.90;101289.94;5082547;27;20045;-82
2022/05/19 02:01:54;;;;;;;4.05;3.28;;;;;;;19.18;68.83;101285.53;5079379;27;20055;-84
2022/05/19 02:04:35;;;;;;;3.72;3.42;;;;;;;19.15;68.92;101286.53;5059816;28;20044;-84
2022/05/19 02:07:06;;;;;;;4.55;3.38;;;;;;;19.12;68.92;101278.63;5062440;27;20065;-82
2022/05/19 02:09:51;;;;;;;3.47;3.17;;;;;;;19.11;69.36;101274.28;5063598;28;20051;-83
2022/05/19 02:12:18;;;;;;;4.28;3.83;;;;;;;19.12;69.25;101275.13;5082421;27;20050;-83
2022/05/19 02:14:51;;;;;;;5.07;3.58;;;;;;;19.10;69.05;101272.53;5064325;27;20047;-82
2022/05/19 02:17:21;;;;;;;4.22;3.92;;;;;;;19.09;69.20;101273.44;5068730;27;20486;-81
2022/05/19 02:19:54;;;;;;;4.30;3.10;;;;;;;19.09;69.37;101272.59;5079866;27;20055;-83
2022/05/19 02:22:25;;;;;;;3.08;2.83;;;;;;;19.06;69.25;101272.69;5083309;28;20055;-82
2022/05/19 02:24:59;;;;;;;4.47;3.70;;;;;;;19.04;69.46;101271.88;5067522;28;20047;-81
2022/05/19 02:28:04;;;;;;;4.30;3.90;;;;;;;18.99;69.80;101272.03;5087019;27;20059;-83
2022/05/19 02:30:34;;;;;;;4.38;3.65;;;;;;;18.97;69.55;101268.59;5061037;28;20461;-83
2022/05/19 02:33:01;;;;;;;5.72;4.38;;;;;;;18.94;70.03;101272.22;5070233;28;20101;-85
2022/05/19 02:35:29;;;;;;;6.82;4.45;;;;;;;18.92;70.23;101271.38;5057718;28;20051;-84
2022/05/19 02:37:57;;;;;;;7.10;3.70;;;;;;;18.88;70.29;101263.53;5084177;27;20497;-82
2022/05/19 02:40:30;;;;;;;5.95;4.38;;;;;;;18.87;70.44;101264.47;5061806;28;20062;-84
2022/05/19 02:42:56;;;;;;;4.28;3.88;;;;;;;18.84;70.49;101258.34;5069677;28;20114;-84
2022/05/19 02:45:24;;;;;;;5.88;4.28;;;;;;;18.82;70.69;101261.97;5084376;28;20382;-83
2022/05/19 02:47:51;;;;;;;3.65;3.35;;;;;;;18.79;71.05;101254.13;5085309;28;20641;-83
2022/05/19 02:50:20;;;;;;;4.07;3.78;;;;;;;18.77;70.79;101267.44;5065274;28;20048;-82
2022/05/19 02:52:47;;;;;;;8.63;4.07;;;;;;;18.76;71.13;101259.50;5081748;28;20054;-82
2022/05/19 02:55:15;;;;;;;4.75;3.72;;;;;;;18.73;71.06;101263.13;5079589;28;20074;-81
2022/05/19 02:57:44;;;;;;;4.28;3.88;;;;;;;18.71;71.03;101264.09;5082736;28;20047;-83
2022/05/19 03:00:17;;;;;;;5.88;3.90;;;;;;;18.68;71.37;101257.13;5065072;28;20469;-84
2022/05/19 03:02:44;;;;;;;6.78;3.83;;;;;;;18.66;71.17;101258.97;5062815;28;20327;-85
2022/05/19 03:05:16;;;;;;;3.70;3.40;;;;;;;18.63;71.23;101264.34;5059840;28;20051;-82
2022/05/19 03:07:43;;;;;;;3.80;3.35;;;;;;;18.61;71.34;101256.44;5080191;28;20047;-83
2022/05/19 03:10:10;;;;;;;3.63;3.33;;;;;;;18.59;71.39;101260.97;5077042;28;20043;-84
2022/05/19 03:12:37;;;;;;;3.63;3.42;;;;;;;18.57;71.53;101253.97;5065719;28;20043;-84
2022/05/19 03:15:05;;;;;;;3.72;3.22;;;;;;;18.56;71.64;101258.38;5060517;28;20058;-82
2022/05/19 03:17:32;;;;;;;5.00;3.85;;;;;;;18.54;71.40;101257.59;5065915;28;20058;-81
2022/05/19 03:19:59;;;;;;;6.03;3.88;;;;;;;18.54;71.60;101260.25;5064452;28;20139;-80
2022/05/19 03:22:26;;;;;;;3.88;3.47;;;;;;;18.54;71.68;101269.97;5063193;28;20570;-83
2022/05/19 03:24:53;;;;;;;4.95;4.03;;;;;;;18.53;71.55;101263.81;5076105;28;20681;-83
2022/05/19 03:27:20;;;;;;;7.20;3.78;;;;;;;18.53;71.59;101253.19;5061343;28;20200;-82
2022/05/19 03:29:48;;;;;;;3.90;3.60;;;;;;;18.55;71.56;101261.09;5059088;28;20052;-82
2022/05/19 03:32:15;;;;;;;4.32;3.95;;;;;;;18.52;71.44;101262.94;5067606;28;20051;-82
2022/05/19 03:34:42;;;;;;;5.00;3.88;;;;;;;18.55;71.19;101263.75;5054130;28;20052;-84
2022/05/19 03:37:09;;;;;;;5.57;4.22;;;;;;;18.57;71.13;101264.56;5079745;28;20431;-83
2022/05/19 03:39:37;;;;;;;3.97;3.28;;;;;;;18.56;71.23;101261.03;5072758;28;20083;-81
2022/05/19 03:42:06;;;;;;;4.43;3.92;;;;;;;18.55;71.38;101256.69;5075913;28;20067;-81
2022/05/19 03:44:34;;;;;;;3.58;3.28;;;;;;;18.56;71.05;101255.75;5073988;28;20047;-83
2022/05/19 03:47:01;;;;;;;4.15;3.63;;;;;;;18.59;70.97;101258.31;5081337;28;20041;-81
2022/05/19 03:49:28;;;;;;;5.47;4.25;;;;;;;18.60;70.82;101257.38;5057918;28;20702;-83
2022/05/19 03:51:55;;;;;;;4.32;3.92;;;;;;;18.62;70.64;101255.53;5062876;28;20418;-83
2022/05/19 03:54:22;;;;;;;3.05;2.85;;;;;;;18.65;70.66;101257.22;5055633;28;20044;-83
2022/05/19 03:56:48;;;;;;;5.47;4.20;;;;;;;18.64;70.59;101260.78;5054644;28;20402;-83
2022/05/19 03:59:15;;;;;;;4.35;3.95;;;;;;;18.67;70.39;101263.34;5077339;28;20800;-81
2022/05/19 04:01:42;;;;;;;4.43;3.40;;;;;;;18.68;70.31;101263.31;5077103;28;20043;-84
2022/05/19 04:04:08;;;;;;;3.83;3.47;;;;;;;18.72;70.21;101265.84;5054576;28;20052;-84
2022/05/19 04:06:36;;;;;;;4.22;3.85;;;;;;;18.75;69.80;101273.72;5058288;28;20055;-82
2022/05/19 04:09:04;;;;;;;5.88;3.70;;;;;;;18.77;69.76;101266.56;5073541;28;20051;-82
2022/05/19 04:11:31;;;;;;;6.80;3.75;;;;;;;18.76;69.60;101271.00;5078210;28;20083;-82
2022/05/19 04:13:58;;;;;;;6.22;3.70;;;;;;;18.79;69.74;101270.03;5055128;28;20157;-81
2022/05/19 04:16:25;;;;;;;4.78;3.78;;;;;;;18.81;69.41;101258.47;5077188;28;20044;-82
2022/05/19 04:18:52;;;;;;;5.78;3.97;;;;;;;18.80;69.46;101256.72;5056566;28;20145;-82
2022/05/19 04:21:19;;;;;;;6.38;4.55;;;;;;;18.83;69.13;101261.91;5071913;28;20535;-84
2022/05/19 04:23:46;;;;;;;4.75;3.20;;;;;;;18.85;69.00;101260.09;5072705;28;20617;-84
2022/05/19 04:26:12;;;;;;;5.72;3.55;;;;;;;18.89;68.96;101260.88;5074057;28;20420;-83
2022/05/19 04:28:39;;;;;;;3.80;3.60;;;;;;;18.92;68.82;101257.25;5067045;28;20040;-82
2022/05/19 04:31:05;;;;;;;5.38;3.55;;;;;;;18.94;68.77;101266.03;5065608;28;20601;-82
2022/05/19 04:33:32;;;;;;;4.25;3.90;;;;;;;18.97;68.74;101255.31;5062022;28;20492;-83
2022/05/19 04:35:59;;;;;;;3.92;3.63;;;;;;;19.00;68.50;101260.50;5059785;28;20134;-82
2022/05/19 04:38:25;;;;;;;5.68;3.85;;;;;;;19.04;67.80;101275.41;5077209;28;20056;-82
2022/05/19 04:40:52;;;;;;;7.78;3.63;;;;;;;19.09;68.11;101273.44;5067766;28;20072;-80
2022/05/19 04:43:22;;;;;;;7.35;4.15;;;;;;;19.13;68.03;101267.13;5082290;28;20052;-83
2022/05/19 04:45:54;;;;;;;5.30;3.97;;;;;;;19.18;67.79;101266.97;5079734;28;20040;-84
2022/05/19 04:48:22;;;;;;;4.50;4.10;;;;;;;19.19;67.86;101268.72;5062543;28;20051;-84
2022/05/19 04:50:55;;;;;;;5.70;3.88;;;;;;;19.22;67.79;101265.94;5065950;28;20581;-82
2022/05/19 04:53:23;;;;;;;5.97;3.53;;;;;;;19.26;67.46;101269.34;5075131;28;20095;-84
2022/05/19 04:55:50;;;;;;;5.43;3.88;;;;;;;19.28;67.46;101272.78;5063439;28;20296;-82
2022/05/19 04:58:17;;;;;;;5.30;4.10;;;;;;;19.30;67.53;101265.66;5064109;28;20048;-82
2022/05/19 05:00:43;;;;;;;4.60;3.88;;;;;;;19.32;67.31;101277.06;5084137;28;20056;-82
2022/05/19 05:03:10;;;;;;;7.30;3.97;;;;;;;19.36;66.90;101270.75;5067053;28;20051;-81
2022/05/19 05:05:39;;;;;;;4.22;3.22;;;;;;;19.41;66.74;101278.53;5066231;28;20718;-81
2022/05/19 05:08:06;;;;;;;4.82;3.67;;;;;;;19.43;66.81;101284.69;5064234;28;20040;-82
2022/05/19 05:10:34;;;;;;;5.60;3.60;;;;;;;19.48;66.55;101277.41;5080302;28;20134;-82
2022/05/19 05:13:10;;;;;;;5.93;3.65;;;;;;;19.52;66.61;101273.72;5070527;28;20114;-82
2022/05/19 05:15:39;;;;;;;4.72;4.25;;;;;;;19.57;66.17;101282.38;5050901;28;20047;-81
2022/05/19 05:18:07;;;;;;;4.30;3.90;;;;;;;19.60;65.93;101281.41;5070925;28;20044;-82
2022/05/19 05:20:34;;;;;;;4.45;3.67;;;;;;;19.62;65.77;101280.44;5068365;28;20135;-81
2022/05/19 05:23:01;;;;;;;5.00;4.13;;;;;;;19.66;65.83;101286.50;5057687;28;20044;-81
2022/05/19 05:25:29;;;;;;;6.97;4.72;;;;;;;19.69;65.49;101277.56;5074726;28;20048;-83
2022/05/19 05:27:57;;;;;;;7.15;3.35;;;;;;;19.74;65.29;101279.09;5069983;28;20358;-81
2022/05/19 05:30:25;;;;;;;9.07;4.13;;;;;;;19.79;64.93;101281.56;5066602;28;20077;-82
2022/05/19 05:32:52;;;;;;;4.72;3.92;;;;;;;19.85;64.76;101280.53;5086185;28;20053;-82
2022/05/19 05:35:19;;;;;;;3.40;3.20;;;;;;;19.92;64.50;101284.66;5065766;28;20133;-82
2022/05/19 05:37:45;;;;;;;3.75;3.42;;;;;;;19.99;64.19;101283.53;5075218;28;20075;-82
2022/05/19 05:40:13;;;;;;;4.13;3.80;;;;;;;20.07;63.99;101285.88;5063127;28;20131;-82
2022/05/19 05:42:40;;;;;;;4.28;3.20;;;;;;;20.12;63.88;101287.44;5081398;28;20116;-82
2022/05/19 05:45:09;;;;;;;6.00;4.40;;;;;;;20.20;63.67;101292.44;5083042;28;20526;-82
2022/05/19 05:47:35;;;;;;;4.50;4.07;;;;;;;20.24;63.44;101291.38;5066427;28;20112;-81
2022/05/19 05:50:02;;;;;;;6.38;4.03;;;;;;;20.32;63.28;101293.75;5081803;28;20044;-85
2022/05/19 05:52:28;;;;;;;4.80;4.28;;;;;;;20.39;63.00;101284.63;5079910;28;20153;-84
2022/05/19 05:54:58;;;;;;;4.03;3.10;;;;;;;20.46;62.56;101293.22;5081538;28;20048;-80
2022/05/19 05:57:26;;;;;;;3.85;3.55;;;;;;;20.56;61.99;101293.69;5078312;28;20054;-84
2022/05/19 05:59:52;;;;;;;6.47;3.30;;;;;;;20.64;61.87;101304.91;5063696;28;20058;-82
2022/05/19 06:02:19;;;;;;;5.45;3.67;;;;;;;20.73;61.18;101299.22;5064334;28;20056;-82
2022/05/19 06:04:46;;;;;;;5.70;3.95;;;;;;;20.82;60.60;101305.97;5057243;28;20124;-81
2022/05/19 06:07:13;;;;;;;6.78;3.38;;;;;;;20.86;60.48;101306.69;5062821;28;20557;-84
2022/05/19 06:09:40;;;;;;;6.43;2.88;;;;;;;20.91;60.35;101305.59;5059197;28;20350;-84
2022/05/19 06:12:08;;;;;;;5.32;3.75;;;;;;;20.95;60.20;101315.16;5065544;28;20354;-82
2022/05/19 06:14:34;;;;;;;8.70;3.17;;;;;;;21.02;60.26;101314.91;5060472;28;20047;-83
2022/05/19 06:17:03;;;;;;;3.95;3.55;;;;;;;21.08;59.65;101315.53;5068629;28;20047;-81
2022/05/19 06:19:30;;;;;;;2.88;2.63;;;;;;;21.17;59.46;101314.25;5061467;28;20454;-82
2022/05/19 06:21:57;;;;;;;4.05;3.60;;;;;;;21.29;59.11;101315.53;5057564;28;20052;-82
2022/05/19 06:24:24;;;;;;;11.40;4.18;;;;;;;21.41;58.79;101309.66;5058894;28;20574;-81
2022/05/19 06:26:50;;;;;;;7.25;3.08;;;;;;;21.52;58.49;101310.97;5056836;28;20100;-82
2022/05/19 06:29:17;;;;;;;4.63;3.65;;;;;;;21.63;57.56;101317.59;5061773;28;20455;-80
2022/05/19 06:31:43;;;;;;;3.30;3.03;;;;;;;21.71;57.47;101309.25;5068239;28;20054;-82
2022/05/19 06:34:11;;;;;;;6.63;3.45;;;;;;;21.83;57.29;101307.81;5064691;28;20048;-83
2022/05/19 06:36:38;;;;;;;5.00;3.38;;;;;;;21.95;56.54;101317.06;5077943;28;20043;-80
2022/05/19 06:39:04;;;;;;;3.95;2.90;;;;;;;22.06;55.90;101309.44;5077252;28;20052;-85
2022/05/19 06:44:17;;;;;;;3.00;2.72;;;;;;;22.34;53.98;101305.44;5066446;28;20059;-81
2022/05/19 06:46:45;;;;;;;42.25;6.10;;;;;;;22.44;53.60;101296.09;5066471;28;20035;-81
2022/05/19 06:49:12;;;;;;;3.70;3.08;;;;;;;22.63;53.01;101297.84;5078437;28;20108;-81
2022/05/19 06:51:39;;;;;;;3.53;2.88;;;;;;;22.82;52.45;101296.97;5077761;28;20742;-82
2022/05/19 06:54:06;;;;;;;4.55;3.05;;;;;;;23.01;50.71;101291.53;5074858;28;20622;-84
2022/05/19 06:56:35;;;;;;;3.38;3.08;;;;;;;23.16;49.95;101289.94;5060311;28;20495;-81
2022/05/19 06:59:02;;;;;;;3.38;2.53;;;;;;;23.32;49.16;101285.50;5079621;28;20044;-81
2022/05/19 07:01:29;;;;;;;4.30;3.05;;;;;;;23.42;48.65;101281.38;5065624;28;20055;-83
2022/05/19 07:03:56;;;;;;;2.47;2.30;;;;;;;23.57;48.67;101286.84;5079588;28;20076;-82
2022/05/19 07:06:24;;;;;;;8.32;2.80;;;;;;;23.69;48.73;101278.19;5040621;28;20075;-81
2022/05/19 07:08:51;;;;;;;2.60;2.40;;;;;;;23.81;48.27;101281.16;5076915;28;20119;-84
2022/05/19 07:11:27;;;;;;;3.95;2.10;;;;;;;23.93;48.04;101277.81;5062689;28;20057;-81
2022/05/19 07:14:12;;;;;;;2.72;2.53;;;;;;;24.01;47.54;101283.59;5068827;28;20060;-82
2022/05/19 07:16:41;;;;;;;3.03;2.60;;;;;;;24.08;48.12;101285.00;5064110;28;20050;-83
2022/05/19 07:21:53;;;;;;;4.28;2.35;;;;;;;24.14;47.85;101270.41;5063583;28;20036;-82
2022/05/19 07:24:22;;;;;;;2.65;2.00;;;;;;;24.04;47.30;101269.19;5059277;28;20043;-82
2022/05/19 07:26:59;;;;;;;3.10;2.40;;;;;;;23.98;47.30;101267.72;5060980;28;21218;-82
2022/05/19 07:29:27;;;;;;;2.50;2.38;;;;;;;24.08;47.33;101263.59;5078774;28;20040;-81
2022/05/19 07:31:58;;;;;;;3.05;2.85;;;;;;;24.27;47.35;101267.91;5080029;28;20555;-84
2022/05/19 07:34:25;;;;;;;2.60;2.40;;;;;;;24.55;46.21;101269.84;5064404;28;20052;-83
2022/05/19 07:36:51;;;;;;;4.28;2.03;;;;;;;24.81;45.73;101266.63;5059883;28;20044;-83
2022/05/19 07:39:18;;;;;;;5.30;2.42;;;;;;;24.85;44.77;101257.44;5062881;28;20062;-82
2022/05/19 07:41:45;;;;;;;2.88;2.50;;;;;;;25.01;44.87;101260.09;5079246;28;20127;-83
2022/05/19 07:44:11;;;;;;;3.13;2.88;;;;;;;25.21;44.33;101257.06;5065547;28;20054;-82
2022/05/19 07:46:38;;;;;;;3.55;2.08;;;;;;;25.48;44.14;101244.75;5083377;28;20127;-82
2022/05/19 07:49:05;;;;;;;4.07;2.70;;;;;;;25.57;43.57;101247.72;5084253;28;20189;-81
2022/05/19 07:51:37;;;;;;;4.40;2.78;;;;;;;25.84;43.18;101248.72;5081291;28;20052;-84
2022/05/19 07:54:07;;;;;;;4.65;2.35;;;;;;;26.20;42.63;101240.13;5079194;28;20052;-81
2022/05/19 07:56:34;;;;;;;3.75;2.97;;;;;;;26.52;41.82;101242.53;5083708;28;20036;-81
2022/05/19 07:59:04;;;;;;;4.38;2.83;;;;;;;26.76;41.71;101241.00;5065887;28;20055;-81
2022/05/19 08:01:31;;;;;;;4.13;2.70;;;;;;;26.88;41.05;101243.72;5086674;28;20048;-84
2022/05/19 08:04:00;;;;;;;4.95;2.45;;;;;;;26.55;40.92;101247.69;5066547;28;20493;-81
2022/05/19 08:06:28;;;;;;;5.68;3.05;;;;;;;26.39;41.98;101245.16;5078395;28;20164;-81
2022/05/19 08:08:55;;;;;;;3.58;2.20;;;;;;;26.34;41.62;101241.06;5064160;28;20055;-82
2022/05/19 08:11:23;;;;;;;2.65;2.35;;;;;;;26.09;42.13;101240.00;5081464;28;20370;-83
2022/05/19 08:16:34;;;;;;;3.05;2.78;;;;;;;26.13;42.08;101249.56;5071466;28;20051;-84
2022/05/19 08:19:05;;;;;;;2.80;2.47;;;;;;;26.26;41.70;101246.94;5067182;28;20043;-82
2022/05/19 08:21:32;;;;;;;3.53;2.63;;;;;;;26.17;41.67;101250.25;5067792;28;20048;-83
2022/05/19 08:23:59;;;;;;;3.63;2.53;;;;;;;26.24;41.53;101244.38;5063652;28;21175;-82
2022/05/19 08:26:28;;;;;;;6.28;2.55;;;;;;;26.22;41.46;101243.59;5066073;28;20045;-83
2022/05/19 08:28:55;;;;;;;2.53;2.42;;;;;;;25.96;41.93;101252.44;5066022;28;20048;-82
2022/05/19 08:31:25;;;;;;;4.60;2.25;;;;;;;25.74;42.19;101251.16;5085486;28;20114;-81
2022/05/19 08:33:54;;;;;;;3.17;2.15;;;;;;;26.11;41.86;101247.94;5065468;28;20055;-81
2022/05/19 08:36:21;;;;;;;2.42;2.20;;;;;;;27.09;40.18;101245.84;5059946;28;20044;-84
2022/05/19 08:38:48;;;;;;;3.90;3.63;;;;;;;28.21;38.58;101245.09;5082051;28;20143;-83
2022/05/19 08:41:38;;;;;;;2.30;2.10;;;;;;;29.24;36.05;101248.13;5064735;28;20055;-82
2022/05/19 08:44:28;;;;;;;4.35;2.67;;;;;;;30.05;35.05;101239.91;5066755;28;20055;-81
2022/05/19 08:46:57;;;;;;;4.03;1.70;;;;;;;30.73;33.96;101231.56;5089580;28;20055;-83
2022/05/19 08:49:53;;;;;;;3.47;2.17;;;;;;;31.37;32.25;101227.84;5081834;28;20118;-82
2022/05/19 08:52:26;;;;;;;2.20;1.92;;;;;;;31.91;30.84;101227.59;5080843;28;20062;-82
2022/05/19 08:54:56;;;;;;;2.63;2.38;;;;;;;32.17;30.12;101227.94;5064980;28;20049;-83
2022/05/19 08:57:42;;;;;;;2.45;1.98;;;;;;;32.09;30.22;101234.03;5079640;28;20071;-80
2022/05/19 09:00:23;;;;;;;2.35;2.25;;;;;;;32.35;30.12;101228.09;5062133;28;20062;-80
2022/05/19 09:03:08;;;;;;;4.22;2.00;;;;;;;32.50;29.18;101228.50;5065121;28;20067;-81
2022/05/19 09:06:04;;;;;;;7.15;2.17;;;;;;;32.32;29.18;101225.69;5080893;28;20048;-81
2022/05/19 09:08:55;;;;;;;2.47;2.15;;;;;;;31.79;30.29;101216.88;5062105;28;20050;-82
2022/05/19 09:11:28;;;;;;;2.72;2.00;;;;;;;31.31;31.21;101218.41;5082032;28;20580;-80
2022/05/19 09:14:04;;;;;;;6.05;2.65;;;;;;;31.45;30.45;101206.34;5068417;28;20447;-82
2022/05/19 09:16:38;;;;;;;1.95;1.75;;;;;;;31.39;31.06;101212.31;5068416;28;20414;-81
2022/05/19 09:19:28;;;;;;;3.78;1.83;;;;;;;31.50;30.11;101201.41;5064669;28;20072;-83
2022/05/19 09:22:12;;;;;;;2.30;1.80;;;;;;;31.54;29.66;101190.28;5080250;28;20577;-83
2022/05/19 09:24:41;;;;;;;5.82;1.85;;;;;;;31.76;30.42;101190.09;5062479;28;20472;-82
2022/05/19 09:27:08;;;;;;;4.30;2.90;;;;;;;31.99;29.45;101198.84;5060773;28;20052;-84
2022/05/19 09:29:41;;;;;;;7.18;2.90;;;;;;;31.41;30.54;101202.22;5084505;28;20113;-84
2022/05/19 09:32:17;;;;;;;3.10;1.92;;;;;;;31.23;30.85;101199.28;5067348;28;20048;-81
2022/05/19 09:34:51;;;;;;;29.17;5.13;;;;;;;31.21;31.18;101208.53;5069855;28;20101;-85
2022/05/19 09:37:35;;;;;;;6.25;2.47;;;;;;;31.06;31.10;101202.66;5067453;28;20117;-81
2022/05/19 09:40:29;;;;;;;3.53;2.42;;;;;;;31.21;31.24;101208.53;5068062;28;20105;-83
2022/05/19 09:42:59;;;;;;;2.58;1.73;;;;;;;31.53;30.83;101207.53;5068370;28;20054;-82
2022/05/19 09:45:29;;;;;;;2.95;2.20;;;;;;;31.98;30.12;101217.91;5067053;28;20074;-82
2022/05/19 09:48:03;;;;;;;2.67;2.50;;;;;;;32.35;29.45;101211.84;5082444;28;20048;-84
2022/05/19 09:50:33;;;;;;;3.53;2.10;;;;;;;32.54;29.33;101215.53;5063035;28;20051;-85
2022/05/19 09:53:23;;;;;;;1.90;1.80;;;;;;;32.59;28.88;101208.72;5065536;28;20134;-84
2022/05/19 09:56:15;;;;;;;5.22;2.35;;;;;;;32.40;28.77;101197.84;5097807;28;20028;-87
2022/05/19 09:58:53;;;;;;;2.65;2.20;;;;;;;32.06;29.19;101193.72;5084833;28;20191;-88
2022/05/19 10:01:51;;;;;;;1.70;1.70;;;;;;;32.29;28.94;101188.03;5082647;28;20044;-84
2022/05/19 10:04:42;;;;;;;3.30;2.05;;;;;;;33.29;27.78;101175.00;5084682;28;20020;-85
2022/05/19 10:07:37;;;;;;;2.10;1.90;;;;;;;34.26;26.90;101173.53;5087705;28;20139;-88
2022/05/19 10:10:33;;;;;;;2.20;1.73;;;;;;;34.27;25.93;101166.22;5096607;28;20036;-85
2022/05/19 10:13:10;;;;;;;3.28;1.58;;;;;;;34.60;26.02;101158.31;5115312;28;20034;-91
2022/05/19 10:16:18;;;;;;;1.98;1.88;;;;;;;35.46;24.99;101148.44;5097583;28;20043;-87
2022/05/19 10:22:35;;;;;;;1.38;1.27;;;;;;;37.36;22.85;101171.03;5089031;28;20040;-87
2022/05/19 10:25:31;;;;;;;1.45;1.30;;;;;;;38.08;21.49;101149.94;5099950;28;20028;-87
2022/05/19 10:31:18;;;;;;;1.85;1.75;;;;;;;36.72;21.94;101158.25;5090556;28;20043;-85
2022/05/19 10:35:07;;;;;;;1.80;1.70;;;;;;;36.66;21.72;101158.97;5101209;28;20071;-86
2022/05/19 10:38:14;;;;;;;6.32;1.85;;;;;;;36.37;23.13;101143.13;5122180;27;20024;-83
2022/05/19 10:41:35;;;;;;;2.10;1.58;;;;;;;36.74;22.94;101141.69;5106740;28;20028;-81
2022/05/19 10:44:37;;;;;;;1.30;1.30;;;;;;;37.95;20.90;101144.25;5086600;28;20024;-84
2022/05/19 10:47:46;;;;;;;4.28;1.48;;;;;;;38.26;20.76;101127.78;5090126;28;20066;-87
2022/05/19 10:50:33;;;;;;;3.15;1.80;;;;;;;38.06;20.98;101131.00;5110921;28;20029;-84
2022/05/19 10:53:58;;;;;;;2.50;1.95;;;;;;;39.07;20.06;101129.81;5088872;28;20045;-85
2022/05/19 10:57:14;;;;;;;2.20;1.27;;;;;;;39.93;18.05;101123.63;5100012;22;20049;-91
2022/05/19 11:00:21;;;;;;;3.20;1.42;;;;;;;40.03;17.89;101117.84;5049792;28;20050;-87
2022/05/19 11:03:16;;;;;;;2.20;1.42;;;;;;;39.78;18.19;101099.06;5043485;28;20052;-87
2022/05/19 11:06:35;;;;;;;0.98;0.98;;;;;;;39.51;18.56;101100.66;5040223;28;20049;-88
2022/05/19 11:09:54;;;;;;;2.63;1.60;;;;;;;39.73;19.02;101097.94;4977721;28;20614;-89
2022/05/19 11:16:12;;;;;;;3.65;1.67;;;;;;;39.98;19.30;101073.72;4963991;28;20058;-88
2022/05/19 11:18:57;;;;;;;5.82;1.50;;;;;;;40.39;17.73;101075.75;4951396;28;20065;-89
2022/05/19 11:27:57;;;;;;;3.67;2.28;;;;;;;38.72;20.28;101058.41;5009923;28;20129;-89
2022/05/19 11:30:43;;;;;;;5.20;2.30;;;;;;;38.84;20.08;101059.63;5047476;28;20068;-89
2022/05/19 11:33:51;;;;;;;2.42;1.88;;;;;;;39.28;18.98;101052.38;5051681;28;20051;-87
2022/05/19 11:36:46;;;;;;;1.55;1.45;;;;;;;39.96;18.65;101045.63;5038150;28;20041;-86
2022/05/19 11:39:34;;;;;;;3.47;1.48;;;;;;;41.18;17.92;101037.91;5052514;28;20056;-85
2022/05/19 11:46:02;;;;;;;2.95;1.75;;;;;;;41.85;17.03;101023.44;5056129;28;20038;-88
2022/05/19 11:57:27;;;;;;;1.63;1.52;;;;;;;41.86;16.77;101003.13;5076891;28;20064;-88
2022/05/19 12:00:03;;;;;;;1.70;1.52;;;;;;;41.59;17.19;101003.97;5071596;28;20076;-85
2022/05/19 12:02:47;;;;;;;1.50;1.10;;;;;;;41.65;16.70;101000.34;5076926;28;20072;-88
2022/05/19 12:05:25;;;;;;;2.67;1.98;;;;;;;41.73;17.40;101002.03;5060128;28;20402;-88
2022/05/19 12:07:57;;;;;;;1.35;1.25;;;;;;;40.86;17.61;101001.91;5079221;28;20067;-88
2022/05/19 12:10:38;;;;;;;4.63;1.85;;;;;;;40.39;18.24;100993.44;5067322;28;20113;-87
2022/05/19 12:13:14;;;;;;;3.95;1.55;;;;;;;40.24;18.29;100992.72;5062223;28;20095;-90
2022/05/19 12:16:00;;;;;;;1.80;1.55;;;;;;;39.99;18.51;100995.91;5065276;28;20113;-87
2022/05/19 12:18:27;;;;;;;3.78;3.58;;;;;;;40.36;17.75;100991.09;5086854;28;20052;-90
2022/05/19 12:21:03;;;;;;;8.80;1.90;;;;;;;40.32;17.87;100998.03;5095139;28;20051;-88
2022/05/19 12:23:50;;;;;;;2.45;1.63;;;;;;;41.08;17.76;100994.38;5078169;28;20476;-88
2022/05/19 12:26:29;;;;;;;1.83;1.73;;;;;;;41.86;16.79;100986.63;5071293;28;20053;-87
2022/05/19 12:32:25;;;;;;;3.50;1.48;;;;;;;42.86;16.77;100975.31;5074366;28;20130;-89
2022/05/19 12:35:03;;;;;;;2.28;2.08;;;;;;;43.03;16.47;100985.81;5053579;28;20138;-89
2022/05/19 12:37:55;;;;;;;4.30;1.60;;;;;;;43.61;15.69;100995.81;5031358;28;20058;-85
2022/05/19 12:40:56;;;;;;;11.57;2.28;;;;;;;44.14;15.43;100988.13;5068443;28;20047;-89